createdAt,value
2022-12-17T00:00:09.801Z,7.80
2022-12-17T00:02:52.263Z,7.80
2022-12-17T00:05:34.212Z,7.80
2022-12-17T00:08:17.018Z,7.90
2022-12-17T00:10:58.681Z,7.90
2022-12-17T00:13:56.456Z,8.00
2022-12-17T00:16:38.652Z,8.00
2022-12-17T00:19:20.849Z,8.00
2022-12-17T00:22:02.883Z,7.90
2022-12-17T00:24:44.913Z,7.90
2022-12-17T00:27:26.846Z,7.80
2022-12-17T00:30:10.648Z,7.80
2022-12-17T00:32:48.853Z,7.80
2022-12-17T00:35:31.444Z,7.80
2022-12-17T00:38:13.460Z,7.80
2022-12-17T00:40:55.358Z,7.80
2022-12-17T00:43:39.497Z,7.90
2022-12-17T00:46:23.432Z,7.90
2022-12-17T00:49:05.401Z,7.90
2022-12-17T00:51:47.603Z,7.90
2022-12-17T00:54:30.356Z,7.90
2022-12-17T00:57:12.529Z,7.90
2022-12-17T00:59:54.588Z,7.90
2022-12-17T01:02:40.231Z,7.90
2022-12-17T01:05:23.214Z,7.90
2022-12-17T01:08:05.192Z,7.80
2022-12-17T01:10:47.090Z,7.70
2022-12-17T01:13:31.495Z,7.70
2022-12-17T01:16:13.841Z,7.70
2022-12-17T01:18:56.947Z,7.70
2022-12-17T01:21:38.507Z,7.60
2022-12-17T01:24:31.936Z,7.60
2022-12-17T01:27:14.476Z,7.60
2022-12-17T01:30:10.720Z,7.50
2022-12-17T01:32:52.526Z,7.50
2022-12-17T01:35:36.174Z,7.60
2022-12-17T01:38:18.047Z,7.50
2022-12-17T01:41:00.267Z,7.50
2022-12-17T01:43:53.549Z,7.60
2022-12-17T01:46:36.634Z,7.60
2022-12-17T01:49:30.069Z,7.70
2022-12-17T01:52:14.470Z,7.70
2022-12-17T01:54:58.328Z,7.80
2022-12-17T01:57:40.479Z,7.70
2022-12-17T02:00:27.496Z,7.80
2022-12-17T02:03:11.143Z,7.70
2022-12-17T02:06:01.879Z,7.60
2022-12-17T02:08:56.128Z,7.50
2022-12-17T02:11:54.299Z,7.50
2022-12-17T02:14:44.695Z,7.40
2022-12-17T02:17:44.742Z,7.30
2022-12-17T02:20:32.784Z,7.30
2022-12-17T02:23:23.573Z,7.30
2022-12-17T02:26:11.983Z,7.30
2022-12-17T02:29:00.163Z,7.30
2022-12-17T02:31:44.926Z,7.30
2022-12-17T02:34:27.275Z,7.30
2022-12-17T02:37:09.205Z,7.30
2022-12-17T02:39:53.132Z,7.40
2022-12-17T02:42:39.949Z,7.40
2022-12-17T02:45:22.742Z,7.40
2022-12-17T02:48:04.933Z,7.50
2022-12-17T02:50:47.015Z,7.40
2022-12-17T02:53:32.380Z,7.40
2022-12-17T02:56:14.200Z,7.40
2022-12-17T02:58:56.121Z,7.40
2022-12-17T03:01:39.878Z,7.40
2022-12-17T03:04:22.054Z,7.40
2022-12-17T03:07:04.099Z,7.30
2022-12-17T03:09:46.037Z,7.30
2022-12-17T03:12:28.653Z,7.30
2022-12-17T03:15:10.367Z,7.30
2022-12-17T03:17:53.869Z,7.40
2022-12-17T03:20:35.846Z,7.40
2022-12-17T03:23:22.967Z,7.40
2022-12-17T03:26:05.603Z,7.30
2022-12-17T03:28:47.629Z,7.30
2022-12-17T03:31:29.530Z,7.30
2022-12-17T03:34:13.231Z,7.30
2022-12-17T03:36:54.861Z,7.20
2022-12-17T03:39:36.750Z,7.20
2022-12-17T03:42:19.308Z,7.20
2022-12-17T03:45:02.493Z,7.20
2022-12-17T03:47:45.435Z,7.20
2022-12-17T03:50:29.424Z,7.20
2022-12-17T03:53:11.389Z,7.10
2022-12-17T03:55:53.387Z,7.20
2022-12-17T03:58:35.123Z,7.30
2022-12-17T04:01:17.032Z,7.30
2022-12-17T04:03:59.167Z,7.30
2022-12-17T04:06:57.646Z,7.40
2022-12-17T04:09:39.734Z,7.40
2022-12-17T04:12:22.112Z,7.40
2022-12-17T04:15:03.937Z,7.50
2022-12-17T04:17:46.228Z,7.50
2022-12-17T04:20:28.554Z,7.50
2022-12-17T04:23:11.573Z,7.50
2022-12-17T04:25:55.569Z,7.50
2022-12-17T04:28:38.234Z,7.50
2022-12-17T04:31:20.117Z,7.50
2022-12-17T04:34:02.170Z,7.50
2022-12-17T04:36:44.214Z,7.50
2022-12-17T04:39:27.153Z,7.50
2022-12-17T04:42:08.643Z,7.50
2022-12-17T04:44:50.540Z,7.40
2022-12-17T04:47:32.341Z,7.30
2022-12-17T04:50:14.133Z,7.10
2022-12-17T04:52:56.140Z,7.00
2022-12-17T04:55:39.440Z,6.80
2022-12-17T04:58:22.141Z,6.70
2022-12-17T05:01:04.027Z,6.70
2022-12-17T05:03:45.969Z,6.70
2022-12-17T05:06:28.117Z,6.60
2022-12-17T05:09:10.090Z,6.60
2022-12-17T05:11:53.782Z,6.50
2022-12-17T05:14:35.688Z,6.50
2022-12-17T05:17:17.398Z,6.50
2022-12-17T05:19:59.361Z,6.40
2022-12-17T05:22:41.177Z,6.30
2022-12-17T05:25:23.680Z,6.20
2022-12-17T05:28:06.879Z,6.20
2022-12-17T05:30:48.676Z,6.20
2022-12-17T05:33:30.832Z,6.30
2022-12-17T05:36:12.894Z,6.30
2022-12-17T05:38:54.673Z,6.30
2022-12-17T05:41:42.151Z,6.20
2022-12-17T05:44:25.364Z,6.20
2022-12-17T05:47:07.201Z,6.20
2022-12-17T05:49:57.134Z,6.20
2022-12-17T05:52:38.992Z,6.20
2022-12-17T05:55:20.708Z,6.30
2022-12-17T05:58:17.105Z,6.30
2022-12-17T06:01:00.116Z,6.30
2022-12-17T06:03:56.963Z,6.30
2022-12-17T06:06:38.888Z,6.30
2022-12-17T06:09:20.830Z,6.40
2022-12-17T06:12:03.222Z,6.40
2022-12-17T06:14:45.228Z,6.50
2022-12-17T06:17:28.148Z,6.50
2022-12-17T06:20:06.432Z,6.50
2022-12-17T06:22:48.268Z,6.60
2022-12-17T06:25:30.115Z,6.60
2022-12-17T06:28:17.282Z,6.60
2022-12-17T06:30:59.571Z,6.60
2022-12-17T06:33:42.704Z,6.60
2022-12-17T06:36:25.320Z,6.80
2022-12-17T06:39:07.283Z,6.80
2022-12-17T06:41:49.062Z,7.00
2022-12-17T06:44:30.898Z,7.10
2022-12-17T06:47:13.518Z,7.30
2022-12-17T06:50:01.076Z,7.70
2022-12-17T06:52:40.988Z,7.70
2022-12-17T06:55:22.956Z,7.90
2022-12-17T06:58:04.996Z,8.30
2022-12-17T07:00:47.218Z,8.70
2022-12-17T07:03:32.456Z,9.20
2022-12-17T07:06:18.665Z,9.60
2022-12-17T07:09:00.361Z,9.90
2022-12-17T07:11:42.472Z,9.90
2022-12-17T07:14:24.612Z,10.00
2022-12-17T07:17:06.564Z,10.20
2022-12-17T07:19:48.260Z,10.40
2022-12-17T07:22:31.573Z,11.00
2022-12-17T07:25:13.281Z,11.30
2022-12-17T07:28:09.764Z,11.50
2022-12-17T07:30:55.756Z,11.90
2022-12-17T07:33:38.047Z,12.10
2022-12-17T07:36:20.262Z,12.60
2022-12-17T07:39:04.125Z,13.00
2022-12-17T07:41:45.976Z,13.20
2022-12-17T07:44:28.095Z,13.50
2022-12-17T07:47:10.182Z,13.40
2022-12-17T07:49:52.468Z,12.10
2022-12-17T07:52:34.568Z,11.80
2022-12-17T07:55:18.465Z,11.10
2022-12-17T07:58:00.453Z,10.70
2022-12-17T08:00:47.575Z,10.50
2022-12-17T08:03:31.971Z,10.50
2022-12-17T08:06:16.282Z,10.60
2022-12-17T08:08:57.917Z,10.90
2022-12-17T08:11:41.124Z,10.80
2022-12-17T08:14:23.049Z,10.80
2022-12-17T08:17:05.223Z,11.00
2022-12-17T08:19:47.387Z,11.30
2022-12-17T08:22:29.421Z,11.70
2022-12-17T08:25:12.432Z,11.90
2022-12-17T08:27:55.793Z,12.00
2022-12-17T08:30:39.348Z,12.10
2022-12-17T08:33:22.281Z,12.40
2022-12-17T08:36:10.459Z,12.70
2022-12-17T08:38:52.177Z,13.00
2022-12-17T08:41:34.047Z,13.30
2022-12-17T08:44:17.079Z,13.70
2022-12-17T08:46:58.942Z,14.00
2022-12-17T08:49:40.702Z,14.50
2022-12-17T08:52:22.427Z,14.70
2022-12-17T08:55:04.113Z,14.90
2022-12-17T08:57:46.364Z,15.00
2022-12-17T09:00:42.112Z,14.90
2022-12-17T09:03:29.790Z,15.00
2022-12-17T09:06:20.490Z,15.00
2022-12-17T09:09:02.606Z,15.10
2022-12-17T09:11:44.594Z,15.50
2022-12-17T09:14:27.128Z,15.50
2022-12-17T09:17:10.748Z,15.60
2022-12-17T09:19:52.675Z,15.60
2022-12-17T09:22:34.515Z,15.50
2022-12-17T09:25:16.776Z,15.70
2022-12-17T09:27:58.970Z,15.80
2022-12-17T09:30:40.885Z,15.80
2022-12-17T09:33:24.591Z,16.00
2022-12-17T09:36:06.344Z,15.90
2022-12-17T09:38:48.568Z,15.90
2022-12-17T09:41:37.460Z,15.80
2022-12-17T09:44:26.452Z,15.80
2022-12-17T09:47:16.335Z,15.60
2022-12-17T09:49:59.526Z,15.50
2022-12-17T09:52:53.800Z,15.50
2022-12-17T09:55:39.829Z,15.50
2022-12-17T09:58:23.054Z,15.70
2022-12-17T10:01:02.224Z,15.70
2022-12-17T10:03:43.976Z,15.70
2022-12-17T10:06:30.544Z,15.90
2022-12-17T10:09:17.360Z,16.10
2022-12-17T10:12:13.845Z,16.10
2022-12-17T10:14:56.384Z,16.20
2022-12-17T10:17:39.827Z,16.30
2022-12-17T10:20:37.338Z,16.30
2022-12-17T10:23:20.998Z,16.30
2022-12-17T10:26:09.723Z,16.30
2022-12-17T10:28:51.773Z,16.30
2022-12-17T10:31:37.737Z,16.00
2022-12-17T10:34:19.659Z,16.00
2022-12-17T10:37:07.429Z,16.00
2022-12-17T10:39:51.906Z,16.20
2022-12-17T10:42:42.304Z,16.20
2022-12-17T10:45:41.923Z,16.20
2022-12-17T10:48:34.909Z,15.90
2022-12-17T10:51:25.394Z,15.70
2022-12-17T10:54:09.342Z,15.70
2022-12-17T10:56:52.503Z,15.80
2022-12-17T10:59:49.580Z,15.80
2022-12-17T11:02:38.562Z,15.80
2022-12-17T11:05:22.659Z,15.90
2022-12-17T11:08:05.809Z,15.90
2022-12-17T11:10:50.773Z,15.90
2022-12-17T11:13:53.951Z,16.00
2022-12-17T11:16:41.095Z,16.00
2022-12-17T11:19:44.135Z,15.80
2022-12-17T11:22:36.662Z,15.80
2022-12-17T11:25:25.216Z,15.70
2022-12-17T11:28:29.946Z,15.90
2022-12-17T11:31:21.246Z,15.90
2022-12-17T11:34:11.167Z,15.90
2022-12-17T11:37:00.142Z,15.90
2022-12-17T11:39:47.555Z,15.90
2022-12-17T11:42:37.856Z,15.90
2022-12-17T11:45:28.206Z,15.90
2022-12-17T11:48:17.175Z,15.90
2022-12-17T11:51:06.234Z,15.90
2022-12-17T11:54:06.881Z,15.90
2022-12-17T11:56:56.511Z,15.90
2022-12-17T11:59:52.501Z,16.00
2022-12-17T12:02:55.496Z,16.00
2022-12-17T12:05:47.509Z,16.00
2022-12-17T12:08:41.440Z,16.10
2022-12-17T12:11:34.935Z,16.00
2022-12-17T12:14:23.510Z,16.10
2022-12-17T12:17:15.648Z,16.10
2022-12-17T12:20:07.317Z,15.90
2022-12-17T12:22:59.639Z,15.70
2022-12-17T12:25:49.607Z,15.60
2022-12-17T12:28:37.995Z,15.50
2022-12-17T12:31:29.788Z,15.30
2022-12-17T12:34:16.242Z,15.10
2022-12-17T12:36:56.472Z,14.90
2022-12-17T12:39:44.975Z,14.70
2022-12-17T12:42:35.312Z,14.70
2022-12-17T12:45:21.307Z,14.60
2022-12-17T12:48:23.064Z,14.60
2022-12-17T12:51:14.081Z,14.60
2022-12-17T12:53:55.869Z,14.50
2022-12-17T12:56:47.886Z,14.20
2022-12-17T12:59:31.119Z,13.70
2022-12-17T13:02:13.098Z,13.50
2022-12-17T13:04:55.616Z,13.30
2022-12-17T13:07:30.615Z,13.20
2022-12-17T13:09:58.101Z,12.90
2022-12-17T13:12:32.205Z,12.70
2022-12-17T13:15:10.176Z,12.50
2022-12-17T13:17:38.045Z,12.30
2022-12-17T13:20:23.241Z,12.10
2022-12-17T13:22:52.615Z,12.00
2022-12-17T13:25:22.520Z,11.90
2022-12-17T13:27:49.279Z,11.80
2022-12-17T13:30:22.643Z,11.70
2022-12-17T13:32:55.944Z,11.80
2022-12-17T13:35:28.808Z,11.70
2022-12-17T13:38:01.307Z,11.60
2022-12-17T13:40:38.428Z,11.50
2022-12-17T13:43:04.359Z,11.50
2022-12-17T13:45:29.479Z,11.50
2022-12-17T13:47:59.021Z,11.50
2022-12-17T13:50:33.814Z,11.40
2022-12-17T13:53:09.698Z,11.40
2022-12-17T13:55:35.657Z,11.50
2022-12-17T13:57:59.975Z,11.50
2022-12-17T14:00:29.437Z,11.50
2022-12-17T14:02:55.389Z,11.50
2022-12-17T14:05:29.266Z,11.40
2022-12-17T14:08:09.892Z,11.30
2022-12-17T14:10:35.235Z,11.20
2022-12-17T14:13:06.693Z,11.00
2022-12-17T14:15:32.353Z,11.00
2022-12-17T14:17:58.977Z,11.00
2022-12-17T14:20:26.591Z,10.80
2022-12-17T14:22:53.698Z,10.60
2022-12-17T14:25:21.811Z,10.70
2022-12-17T14:27:54.523Z,10.60
2022-12-17T14:30:24.987Z,10.60
2022-12-17T14:32:50.237Z,10.50
2022-12-17T14:35:26.155Z,10.50
2022-12-17T14:37:50.775Z,10.50
2022-12-17T14:40:18.206Z,10.50
2022-12-17T14:42:44.214Z,10.40
2022-12-17T14:45:23.899Z,10.40
2022-12-17T14:47:55.661Z,10.40
2022-12-17T14:50:29.346Z,10.40
2022-12-17T14:52:57.633Z,10.40
2022-12-17T14:55:38.146Z,10.20
2022-12-17T14:58:18.294Z,10.10
2022-12-17T15:00:45.611Z,10.10
2022-12-17T15:03:12.880Z,10.20
2022-12-17T15:05:37.657Z,10.20
2022-12-17T15:08:02.151Z,10.10
2022-12-17T15:10:26.660Z,10.10
2022-12-17T15:12:53.018Z,10.20
2022-12-17T15:15:21.221Z,10.10
2022-12-17T15:17:45.830Z,10.20
2022-12-17T15:20:18.180Z,10.20
2022-12-17T15:22:42.753Z,10.30
2022-12-17T15:25:08.240Z,10.30
2022-12-17T15:27:32.649Z,10.20
2022-12-17T15:29:57.090Z,10.10
2022-12-17T15:32:24.796Z,10.10
2022-12-17T15:34:49.560Z,10.20
2022-12-17T15:37:15.263Z,10.10
2022-12-17T15:39:40.122Z,10.10
2022-12-17T15:42:22.873Z,10.00
2022-12-17T15:44:48.881Z,10.00
2022-12-17T15:47:13.408Z,10.20
2022-12-17T15:49:39.554Z,10.20
2022-12-17T15:52:04.299Z,10.10
2022-12-17T15:54:30.270Z,10.20
2022-12-17T15:56:56.115Z,10.10
2022-12-17T15:59:20.588Z,10.20
2022-12-17T16:01:45.095Z,10.30
2022-12-17T16:04:16.795Z,10.40
2022-12-17T16:06:45.359Z,10.30
2022-12-17T16:09:10.434Z,10.40
2022-12-17T16:11:35.144Z,10.30
2022-12-17T16:13:59.579Z,10.30
2022-12-17T16:16:24.692Z,10.30
2022-12-17T16:18:49.253Z,10.30
2022-12-17T16:21:15.198Z,10.30
2022-12-17T16:23:41.596Z,10.40
2022-12-17T16:26:09.067Z,10.30
2022-12-17T16:28:34.355Z,10.40
2022-12-17T16:31:00.871Z,10.40
2022-12-17T16:33:26.550Z,10.40
2022-12-17T16:35:53.282Z,10.40
2022-12-17T16:38:17.733Z,10.50
2022-12-17T16:40:43.655Z,10.50
2022-12-17T16:43:07.984Z,10.40
2022-12-17T16:45:32.967Z,10.40
2022-12-17T16:47:57.273Z,10.40
2022-12-17T16:50:21.649Z,10.40
2022-12-17T16:52:45.901Z,10.40
2022-12-17T16:55:10.935Z,10.30
2022-12-17T16:57:36.630Z,10.40
2022-12-17T17:00:01.005Z,10.40
2022-12-17T17:02:25.728Z,10.40
2022-12-17T17:04:50.251Z,10.40
2022-12-17T17:07:14.703Z,10.40
2022-12-17T17:09:39.550Z,10.40
2022-12-17T17:12:04.609Z,10.50
2022-12-17T17:14:30.363Z,10.50
2022-12-17T17:16:54.838Z,10.50
2022-12-17T17:19:21.669Z,10.60
2022-12-17T17:21:51.813Z,10.50
2022-12-17T17:24:21.638Z,10.50
2022-12-17T17:26:46.699Z,10.50
2022-12-17T17:29:11.541Z,10.50
2022-12-17T17:32:09.906Z,10.50
2022-12-17T17:34:23.051Z,10.40
2022-12-17T17:36:47.343Z,10.40
2022-12-17T17:39:12.123Z,10.30
2022-12-17T17:41:38.010Z,10.40
2022-12-17T17:44:04.501Z,10.20
2022-12-17T17:46:30.103Z,10.20
2022-12-17T17:48:57.872Z,10.10
2022-12-17T17:51:52.000Z,10.10
2022-12-17T17:54:14.213Z,10.00
2022-12-17T17:56:41.107Z,10.00
2022-12-17T17:59:07.036Z,10.00
2022-12-17T18:01:33.350Z,9.90
2022-12-17T18:04:01.686Z,9.80
2022-12-17T18:06:26.765Z,9.80
2022-12-17T18:08:51.356Z,9.70
2022-12-17T18:11:22.834Z,9.60
2022-12-17T18:13:56.770Z,9.60
2022-12-17T18:16:21.845Z,9.60
2022-12-17T18:18:46.187Z,9.70
2022-12-17T18:21:13.958Z,9.70
2022-12-17T18:23:38.582Z,9.80
2022-12-17T18:26:08.194Z,9.80
2022-12-17T18:28:33.021Z,9.90
2022-12-17T18:30:57.370Z,10.00
2022-12-17T18:33:21.790Z,9.90
2022-12-17T18:35:46.161Z,9.90
2022-12-17T18:38:11.848Z,9.90
2022-12-17T18:40:36.897Z,9.90
2022-12-17T18:43:18.738Z,9.80
2022-12-17T18:45:45.251Z,9.80
2022-12-17T18:48:09.865Z,9.80
2022-12-17T18:50:35.884Z,9.80
2022-12-17T18:53:00.211Z,9.80
2022-12-17T18:55:26.069Z,9.80
2022-12-17T18:57:50.488Z,9.70
2022-12-17T19:00:16.227Z,9.60
2022-12-17T19:02:40.620Z,9.50
2022-12-17T19:05:05.699Z,9.40
2022-12-17T19:07:29.953Z,9.30
2022-12-17T19:09:54.680Z,9.20
2022-12-17T19:12:20.360Z,9.10
2022-12-17T19:14:45.126Z,9.10
2022-12-17T19:17:09.469Z,9.10
2022-12-17T19:19:34.183Z,9.10
2022-12-17T19:22:00.026Z,9.00
2022-12-17T19:24:25.050Z,9.00
2022-12-17T19:26:49.919Z,8.90
2022-12-17T19:29:17.646Z,8.90
2022-12-17T19:31:42.297Z,8.90
2022-12-17T19:34:08.013Z,9.00
2022-12-17T19:36:34.281Z,8.90
2022-12-17T19:39:01.420Z,9.10
2022-12-17T19:41:26.830Z,8.90
2022-12-17T19:43:55.537Z,8.90
2022-12-17T19:46:21.799Z,8.90
2022-12-17T19:48:49.051Z,8.80
2022-12-17T19:51:16.199Z,8.80
2022-12-17T19:53:44.709Z,8.80
2022-12-17T19:56:14.387Z,8.80
2022-12-17T19:58:40.373Z,8.80
2022-12-17T20:01:07.872Z,8.80
2022-12-17T20:03:33.694Z,8.80
2022-12-17T20:05:58.189Z,8.80
2022-12-17T20:08:22.922Z,8.80
2022-12-17T20:10:47.327Z,8.90
2022-12-17T20:13:11.653Z,8.80
2022-12-17T20:15:35.941Z,8.80
2022-12-17T20:18:00.248Z,8.80
2022-12-17T20:20:25.917Z,8.80
2022-12-17T20:22:50.265Z,8.80
2022-12-17T20:25:14.804Z,8.80
2022-12-17T20:27:39.223Z,8.80
2022-12-17T20:30:03.510Z,8.90
2022-12-17T20:32:28.106Z,8.90
2022-12-17T20:34:52.532Z,8.90
2022-12-17T20:37:18.228Z,8.90
2022-12-17T20:39:42.893Z,8.90
2022-12-17T20:42:07.739Z,8.90
2022-12-17T20:44:33.921Z,8.90
2022-12-17T20:47:00.554Z,8.90
2022-12-17T20:49:24.971Z,9.00
2022-12-17T20:51:49.326Z,9.00
2022-12-17T20:54:15.174Z,8.90
2022-12-17T20:56:40.769Z,8.80
2022-12-17T20:59:08.619Z,8.90
2022-12-17T21:01:35.624Z,8.90
2022-12-17T21:04:00.806Z,8.80
2022-12-17T21:06:26.873Z,8.70
2022-12-17T21:08:52.889Z,8.60
2022-12-17T21:11:20.655Z,8.60
2022-12-17T21:13:45.200Z,8.60
2022-12-17T21:16:14.032Z,8.70
2022-12-17T21:18:38.765Z,8.70
2022-12-17T21:21:05.813Z,8.60
2022-12-17T21:23:30.929Z,8.60
2022-12-17T21:26:08.759Z,8.50
2022-12-17T21:28:38.368Z,8.50
2022-12-17T21:31:03.909Z,8.50
2022-12-17T21:33:29.485Z,8.30
2022-12-17T21:36:00.500Z,8.20
2022-12-17T21:38:25.137Z,8.20
2022-12-17T21:40:49.659Z,8.10
2022-12-17T21:43:13.996Z,8.10
2022-12-17T21:45:42.372Z,8.10
2022-12-17T21:48:11.312Z,8.00
2022-12-17T21:50:42.172Z,7.90
2022-12-17T21:53:07.064Z,7.90
2022-12-17T21:55:31.455Z,7.90
2022-12-17T21:57:55.844Z,7.90
2022-12-17T22:00:20.461Z,7.80
2022-12-17T22:02:46.315Z,7.70
2022-12-17T22:05:16.269Z,7.60
2022-12-17T22:07:50.483Z,7.70
2022-12-17T22:10:38.067Z,7.60
2022-12-17T22:13:18.345Z,7.60
2022-12-17T22:15:48.260Z,7.50
2022-12-17T22:18:14.502Z,7.50
2022-12-17T22:20:38.812Z,7.50
2022-12-17T22:23:04.885Z,7.40
2022-12-17T22:25:29.453Z,7.40
2022-12-17T22:27:55.423Z,7.40
2022-12-17T22:30:37.706Z,7.30
2022-12-17T22:33:09.852Z,7.40
2022-12-17T22:36:59.530Z,7.40
2022-12-17T22:41:44.075Z,7.50
2022-12-17T22:44:30.216Z,7.60
2022-12-17T22:44:42.207Z,7.50
2022-12-17T22:46:59.633Z,7.60
2022-12-17T22:49:24.352Z,7.50
2022-12-17T22:51:50.278Z,7.40
2022-12-17T22:54:15.607Z,7.50
2022-12-17T22:57:22.145Z,7.50
2022-12-17T22:59:27.254Z,7.50
2022-12-17T23:01:51.747Z,7.30
2022-12-17T23:04:17.335Z,7.30
2022-12-17T23:06:42.118Z,7.40
2022-12-17T23:09:07.920Z,7.30
2022-12-17T23:11:32.322Z,7.40
2022-12-17T23:13:57.105Z,7.40
2022-12-17T23:16:24.487Z,7.50
2022-12-17T23:18:50.407Z,7.50
2022-12-17T23:21:19.349Z,7.30
2022-12-17T23:23:44.405Z,7.20
2022-12-17T23:26:11.833Z,7.10
2022-12-17T23:28:36.451Z,7.10
2022-12-17T23:31:06.713Z,7.10
2022-12-17T23:33:31.072Z,7.10
2022-12-17T23:36:04.521Z,7.10
2022-12-17T23:38:28.893Z,7.10
2022-12-17T23:40:53.363Z,7.20
2022-12-17T23:43:19.163Z,7.30
2022-12-17T23:45:43.526Z,7.50
2022-12-17T23:48:08.381Z,7.50
2022-12-17T23:50:32.721Z,7.60
2022-12-17T23:52:57.064Z,7.60
2022-12-17T23:55:21.551Z,7.50
2022-12-17T23:57:45.977Z,7.40
